sensor_id;sensor_type;location;lat;lon;timestamp;P1;durP1;ratioP1;P2;durP2;ratioP2
66741;SDS011;53654;54.152;19.432;2022-11-10T00:00:03;46.90;;;39.40;;
66741;SDS011;53654;54.152;19.432;2022-11-10T00:03:11;46.20;;;39.10;;
66741;SDS011;53654;54.152;19.432;2022-11-10T00:06:00;46.00;;;38.80;;
66741;SDS011;53654;54.152;19.432;2022-11-10T00:08:47;44.60;;;38.80;;
66741;SDS011;53654;54.152;19.432;2022-11-10T00:11:34;45.20;;;38.70;;
66741;SDS011;53654;54.152;19.432;2022-11-10T00:14:21;43.50;;;38.20;;
66741;SDS011;53654;54.152;19.432;2022-11-10T00:17:26;44.80;;;37.70;;
66741;SDS011;53654;54.152;19.432;2022-11-10T00:20:13;44.90;;;37.10;;
66741;SDS011;53654;54.152;19.432;2022-11-10T00:23:00;42.10;;;37.10;;
66741;SDS011;53654;54.152;19.432;2022-11-10T00:25:46;45.70;;;38.70;;
66741;SDS011;53654;54.152;19.432;2022-11-10T00:28:33;44.80;;;38.50;;
66741;SDS011;53654;54.152;19.432;2022-11-10T00:31:20;42.70;;;38.00;;
66741;SDS011;53654;54.152;19.432;2022-11-10T00:34:07;43.00;;;38.00;;
66741;SDS011;53654;54.152;19.432;2022-11-10T00:36:59;45.40;;;39.10;;
66741;SDS011;53654;54.152;19.432;2022-11-10T00:39:46;45.10;;;37.90;;
66741;SDS011;53654;54.152;19.432;2022-11-10T00:42:33;43.00;;;38.20;;
66741;SDS011;53654;54.152;19.432;2022-11-10T00:45:20;46.90;;;40.50;;
66741;SDS011;53654;54.152;19.432;2022-11-10T00:48:07;45.30;;;38.00;;
66741;SDS011;53654;54.152;19.432;2022-11-10T00:50:53;43.90;;;39.10;;
66741;SDS011;53654;54.152;19.432;2022-11-10T00:53:40;46.70;;;40.30;;
66741;SDS011;53654;54.152;19.432;2022-11-10T00:56:27;47.90;;;40.30;;
66741;SDS011;53654;54.152;19.432;2022-11-10T00:59:14;46.50;;;39.90;;
66741;SDS011;53654;54.152;19.432;2022-11-10T01:02:01;45.20;;;39.00;;
66741;SDS011;53654;54.152;19.432;2022-11-10T01:04:47;46.00;;;38.70;;
66741;SDS011;53654;54.152;19.432;2022-11-10T01:07:34;44.00;;;37.80;;
66741;SDS011;53654;54.152;19.432;2022-11-10T01:10:21;44.00;;;37.60;;
66741;SDS011;53654;54.152;19.432;2022-11-10T01:13:07;41.80;;;36.10;;
66741;SDS011;53654;54.152;19.432;2022-11-10T01:15:54;41.00;;;35.70;;
66741;SDS011;53654;54.152;19.432;2022-11-10T01:18:41;41.70;;;36.40;;
66741;SDS011;53654;54.152;19.432;2022-11-10T01:21:29;42.70;;;36.40;;
66741;SDS011;53654;54.152;19.432;2022-11-10T01:24:19;49.60;;;40.00;;
66741;SDS011;53654;54.152;19.432;2022-11-10T01:27:06;55.00;;;41.80;;
66741;SDS011;53654;54.152;19.432;2022-11-10T01:29:53;58.10;;;43.30;;
66741;SDS011;53654;54.152;19.432;2022-11-10T01:32:40;51.00;;;40.60;;
66741;SDS011;53654;54.152;19.432;2022-11-10T01:35:27;53.60;;;41.40;;
66741;SDS011;53654;54.152;19.432;2022-11-10T01:38:14;45.80;;;39.10;;
66741;SDS011;53654;54.152;19.432;2022-11-10T01:41:01;49.90;;;39.40;;
66741;SDS011;53654;54.152;19.432;2022-11-10T01:43:50;51.60;;;39.50;;
66741;SDS011;53654;54.152;19.432;2022-11-10T01:46:36;54.20;;;39.60;;
66741;SDS011;53654;54.152;19.432;2022-11-10T01:49:23;48.30;;;38.00;;
66741;SDS011;53654;54.152;19.432;2022-11-10T01:52:12;47.60;;;37.40;;
66741;SDS011;53654;54.152;19.432;2022-11-10T01:54:59;42.00;;;35.50;;
66741;SDS011;53654;54.152;19.432;2022-11-10T01:57:46;40.60;;;34.90;;
66741;SDS011;53654;54.152;19.432;2022-11-10T02:00:33;42.10;;;34.60;;
66741;SDS011;53654;54.152;19.432;2022-11-10T02:06:41;44.30;;;35.30;;
66741;SDS011;53654;54.152;19.432;2022-11-10T02:09:30;43.40;;;35.80;;
66741;SDS011;53654;54.152;19.432;2022-11-10T02:12:18;43.50;;;36.80;;
66741;SDS011;53654;54.152;19.432;2022-11-10T02:15:22;43.70;;;36.20;;
66741;SDS011;53654;54.152;19.432;2022-11-10T02:18:09;41.60;;;35.40;;
66741;SDS011;53654;54.152;19.432;2022-11-10T02:20:56;41.80;;;36.20;;
66741;SDS011;53654;54.152;19.432;2022-11-10T02:23:44;39.70;;;35.20;;
66741;SDS011;53654;54.152;19.432;2022-11-10T02:26:32;40.90;;;34.10;;
66741;SDS011;53654;54.152;19.432;2022-11-10T02:29:22;40.90;;;34.80;;
66741;SDS011;53654;54.152;19.432;2022-11-10T02:32:10;37.10;;;32.80;;
66741;SDS011;53654;54.152;19.432;2022-11-10T02:34:57;39.00;;;33.40;;
66741;SDS011;53654;54.152;19.432;2022-11-10T02:37:43;37.80;;;33.10;;
66741;SDS011;53654;54.152;19.432;2022-11-10T02:40:31;37.10;;;32.90;;
66741;SDS011;53654;54.152;19.432;2022-11-10T02:43:17;40.00;;;33.90;;
66741;SDS011;53654;54.152;19.432;2022-11-10T02:46:05;37.30;;;32.90;;
66741;SDS011;53654;54.152;19.432;2022-11-10T02:48:52;36.60;;;32.10;;
66741;SDS011;53654;54.152;19.432;2022-11-10T02:51:39;37.10;;;32.80;;
66741;SDS011;53654;54.152;19.432;2022-11-10T02:54:26;37.00;;;33.00;;
66741;SDS011;53654;54.152;19.432;2022-11-10T02:57:12;38.70;;;32.90;;
66741;SDS011;53654;54.152;19.432;2022-11-10T02:59:59;37.30;;;32.20;;
66741;SDS011;53654;54.152;19.432;2022-11-10T03:02:45;36.90;;;32.50;;
66741;SDS011;53654;54.152;19.432;2022-11-10T03:05:32;35.50;;;30.90;;
66741;SDS011;53654;54.152;19.432;2022-11-10T03:08:19;35.70;;;31.10;;
66741;SDS011;53654;54.152;19.432;2022-11-10T03:11:05;37.90;;;31.70;;
66741;SDS011;53654;54.152;19.432;2022-11-10T03:13:52;35.10;;;31.20;;
66741;SDS011;53654;54.152;19.432;2022-11-10T03:16:47;37.30;;;32.50;;
66741;SDS011;53654;54.152;19.432;2022-11-10T03:19:33;36.90;;;32.70;;
66741;SDS011;53654;54.152;19.432;2022-11-10T03:22:21;33.60;;;30.00;;
66741;SDS011;53654;54.152;19.432;2022-11-10T03:25:08;34.50;;;30.30;;
66741;SDS011;53654;54.152;19.432;2022-11-10T03:27:56;34.70;;;30.40;;
66741;SDS011;53654;54.152;19.432;2022-11-10T03:30:43;33.90;;;29.60;;
66741;SDS011;53654;54.152;19.432;2022-11-10T03:33:31;33.10;;;29.50;;
66741;SDS011;53654;54.152;19.432;2022-11-10T03:36:17;32.80;;;29.30;;
66741;SDS011;53654;54.152;19.432;2022-11-10T03:39:04;33.70;;;29.90;;
66741;SDS011;53654;54.152;19.432;2022-11-10T03:41:50;33.50;;;29.80;;
66741;SDS011;53654;54.152;19.432;2022-11-10T03:44:38;32.10;;;28.80;;
66741;SDS011;53654;54.152;19.432;2022-11-10T03:47:24;32.60;;;29.20;;
66741;SDS011;53654;54.152;19.432;2022-11-10T03:50:12;32.60;;;29.10;;
66741;SDS011;53654;54.152;19.432;2022-11-10T03:52:59;32.00;;;28.50;;
66741;SDS011;53654;54.152;19.432;2022-11-10T03:55:46;31.90;;;28.40;;
66741;SDS011;53654;54.152;19.432;2022-11-10T03:58:32;31.30;;;27.90;;
66741;SDS011;53654;54.152;19.432;2022-11-10T04:01:19;32.10;;;28.30;;
66741;SDS011;53654;54.152;19.432;2022-11-10T04:04:06;32.00;;;28.60;;
66741;SDS011;53654;54.152;19.432;2022-11-10T04:07:16;30.60;;;27.40;;
66741;SDS011;53654;54.152;19.432;2022-11-10T04:10:22;31.20;;;27.80;;
66741;SDS011;53654;54.152;19.432;2022-11-10T04:13:09;32.00;;;28.60;;
66741;SDS011;53654;54.152;19.432;2022-11-10T04:16:15;31.70;;;28.30;;
66741;SDS011;53654;54.152;19.432;2022-11-10T04:19:01;31.40;;;28.00;;
66741;SDS011;53654;54.152;19.432;2022-11-10T04:21:47;32.40;;;29.00;;
66741;SDS011;53654;54.152;19.432;2022-11-10T04:24:34;31.20;;;27.90;;
66741;SDS011;53654;54.152;19.432;2022-11-10T04:27:21;32.40;;;29.00;;
66741;SDS011;53654;54.152;19.432;2022-11-10T04:30:08;31.70;;;28.40;;
66741;SDS011;53654;54.152;19.432;2022-11-10T04:32:56;33.10;;;29.40;;
66741;SDS011;53654;54.152;19.432;2022-11-10T04:35:42;33.60;;;29.90;;
66741;SDS011;53654;54.152;19.432;2022-11-10T04:38:29;31.80;;;28.10;;
66741;SDS011;53654;54.152;19.432;2022-11-10T04:41:16;33.70;;;30.10;;
66741;SDS011;53654;54.152;19.432;2022-11-10T04:44:03;33.40;;;29.80;;
66741;SDS011;53654;54.152;19.432;2022-11-10T04:46:50;35.00;;;31.30;;
66741;SDS011;53654;54.152;19.432;2022-11-10T04:49:37;35.30;;;31.20;;
66741;SDS011;53654;54.152;19.432;2022-11-10T04:52:24;34.00;;;30.40;;
66741;SDS011;53654;54.152;19.432;2022-11-10T04:55:10;35.10;;;31.40;;
66741;SDS011;53654;54.152;19.432;2022-11-10T04:57:57;34.20;;;30.70;;
66741;SDS011;53654;54.152;19.432;2022-11-10T05:00:44;34.10;;;30.40;;
66741;SDS011;53654;54.152;19.432;2022-11-10T05:03:30;32.50;;;29.10;;
66741;SDS011;53654;54.152;19.432;2022-11-10T05:06:17;33.30;;;29.80;;
66741;SDS011;53654;54.152;19.432;2022-11-10T05:09:03;30.70;;;27.50;;
66741;SDS011;53654;54.152;19.432;2022-11-10T05:11:50;31.60;;;28.40;;
66741;SDS011;53654;54.152;19.432;2022-11-10T05:14:36;32.00;;;28.60;;
66741;SDS011;53654;54.152;19.432;2022-11-10T05:17:23;32.90;;;29.40;;
66741;SDS011;53654;54.152;19.432;2022-11-10T05:20:10;32.50;;;29.00;;
66741;SDS011;53654;54.152;19.432;2022-11-10T05:22:57;31.60;;;28.30;;
66741;SDS011;53654;54.152;19.432;2022-11-10T05:26:10;31.70;;;28.40;;
66741;SDS011;53654;54.152;19.432;2022-11-10T05:29:02;32.30;;;28.90;;
66741;SDS011;53654;54.152;19.432;2022-11-10T05:31:48;32.60;;;29.10;;
66741;SDS011;53654;54.152;19.432;2022-11-10T05:34:37;30.20;;;27.10;;
66741;SDS011;53654;54.152;19.432;2022-11-10T05:37:23;30.90;;;27.60;;
66741;SDS011;53654;54.152;19.432;2022-11-10T05:40:10;30.80;;;27.40;;
66741;SDS011;53654;54.152;19.432;2022-11-10T05:42:57;29.20;;;26.10;;
66741;SDS011;53654;54.152;19.432;2022-11-10T05:45:44;29.40;;;26.40;;
66741;SDS011;53654;54.152;19.432;2022-11-10T05:48:31;28.80;;;25.70;;
66741;SDS011;53654;54.152;19.432;2022-11-10T05:51:17;29.40;;;25.90;;
66741;SDS011;53654;54.152;19.432;2022-11-10T05:54:04;29.40;;;26.30;;
66741;SDS011;53654;54.152;19.432;2022-11-10T05:56:50;29.70;;;26.60;;
66741;SDS011;53654;54.152;19.432;2022-11-10T05:59:37;30.40;;;27.10;;
66741;SDS011;53654;54.152;19.432;2022-11-10T06:02:24;31.10;;;27.80;;
66741;SDS011;53654;54.152;19.432;2022-11-10T06:05:10;30.10;;;26.90;;
66741;SDS011;53654;54.152;19.432;2022-11-10T06:07:57;30.70;;;27.50;;
66741;SDS011;53654;54.152;19.432;2022-11-10T06:10:45;31.00;;;27.70;;
66741;SDS011;53654;54.152;19.432;2022-11-10T06:13:33;31.40;;;27.90;;
66741;SDS011;53654;54.152;19.432;2022-11-10T06:16:20;31.60;;;28.30;;
66741;SDS011;53654;54.152;19.432;2022-11-10T06:19:06;29.70;;;26.40;;
66741;SDS011;53654;54.152;19.432;2022-11-10T06:21:53;28.90;;;25.80;;
66741;SDS011;53654;54.152;19.432;2022-11-10T06:24:48;27.80;;;25.00;;
66741;SDS011;53654;54.152;19.432;2022-11-10T06:27:35;31.00;;;27.80;;
66741;SDS011;53654;54.152;19.432;2022-11-10T06:30:22;31.30;;;28.00;;
66741;SDS011;53654;54.152;19.432;2022-11-10T06:33:09;28.50;;;25.60;;
66741;SDS011;53654;54.152;19.432;2022-11-10T06:35:56;30.50;;;27.40;;
66741;SDS011;53654;54.152;19.432;2022-11-10T06:38:43;30.50;;;27.30;;
66741;SDS011;53654;54.152;19.432;2022-11-10T06:41:29;30.70;;;27.40;;
66741;SDS011;53654;54.152;19.432;2022-11-10T06:44:16;30.80;;;27.60;;
66741;SDS011;53654;54.152;19.432;2022-11-10T06:47:03;31.20;;;27.90;;
66741;SDS011;53654;54.152;19.432;2022-11-10T06:49:49;35.90;;;32.20;;
66741;SDS011;53654;54.152;19.432;2022-11-10T06:52:36;28.70;;;25.70;;
66741;SDS011;53654;54.152;19.432;2022-11-10T06:55:22;29.70;;;26.60;;
66741;SDS011;53654;54.152;19.432;2022-11-10T06:58:09;27.40;;;24.50;;
66741;SDS011;53654;54.152;19.432;2022-11-10T07:00:58;27.50;;;24.80;;
66741;SDS011;53654;54.152;19.432;2022-11-10T07:03:46;26.40;;;23.60;;
66741;SDS011;53654;54.152;19.432;2022-11-10T07:06:53;26.70;;;23.90;;
66741;SDS011;53654;54.152;19.432;2022-11-10T07:09:39;24.80;;;22.20;;
66741;SDS011;53654;54.152;19.432;2022-11-10T07:12:26;24.60;;;22.00;;
66741;SDS011;53654;54.152;19.432;2022-11-10T07:15:13;24.40;;;21.90;;
66741;SDS011;53654;54.152;19.432;2022-11-10T07:18:00;24.80;;;22.20;;
66741;SDS011;53654;54.152;19.432;2022-11-10T07:20:47;25.10;;;22.60;;
66741;SDS011;53654;54.152;19.432;2022-11-10T07:23:34;24.80;;;22.30;;
66741;SDS011;53654;54.152;19.432;2022-11-10T07:26:21;23.60;;;21.10;;
66741;SDS011;53654;54.152;19.432;2022-11-10T07:29:08;23.50;;;21.10;;
66741;SDS011;53654;54.152;19.432;2022-11-10T07:31:55;23.20;;;20.90;;
66741;SDS011;53654;54.152;19.432;2022-11-10T07:34:42;23.60;;;21.20;;
66741;SDS011;53654;54.152;19.432;2022-11-10T07:37:28;22.60;;;20.30;;
66741;SDS011;53654;54.152;19.432;2022-11-10T07:40:15;22.10;;;19.80;;
66741;SDS011;53654;54.152;19.432;2022-11-10T07:43:01;22.80;;;20.30;;
66741;SDS011;53654;54.152;19.432;2022-11-10T07:45:50;23.20;;;20.80;;
66741;SDS011;53654;54.152;19.432;2022-11-10T07:48:37;22.90;;;20.50;;
66741;SDS011;53654;54.152;19.432;2022-11-10T07:51:24;22.00;;;19.70;;
66741;SDS011;53654;54.152;19.432;2022-11-10T07:54:12;22.30;;;20.00;;
66741;SDS011;53654;54.152;19.432;2022-11-10T07:56:59;22.90;;;20.50;;
66741;SDS011;53654;54.152;19.432;2022-11-10T07:59:45;22.00;;;19.70;;
66741;SDS011;53654;54.152;19.432;2022-11-10T08:02:32;22.70;;;20.40;;
66741;SDS011;53654;54.152;19.432;2022-11-10T08:05:19;23.50;;;21.00;;
66741;SDS011;53654;54.152;19.432;2022-11-10T08:08:05;22.00;;;19.80;;
66741;SDS011;53654;54.152;19.432;2022-11-10T08:10:55;23.20;;;20.70;;
66741;SDS011;53654;54.152;19.432;2022-11-10T08:13:43;21.50;;;19.30;;
66741;SDS011;53654;54.152;19.432;2022-11-10T08:16:29;22.00;;;19.70;;
66741;SDS011;53654;54.152;19.432;2022-11-10T08:19:15;21.70;;;19.50;;
66741;SDS011;53654;54.152;19.432;2022-11-10T08:22:02;21.90;;;19.70;;
66741;SDS011;53654;54.152;19.432;2022-11-10T08:24:49;22.30;;;20.10;;
66741;SDS011;53654;54.152;19.432;2022-11-10T08:27:35;22.60;;;20.20;;
66741;SDS011;53654;54.152;19.432;2022-11-10T08:30:22;21.30;;;19.10;;
66741;SDS011;53654;54.152;19.432;2022-11-10T08:33:10;21.20;;;19.00;;
66741;SDS011;53654;54.152;19.432;2022-11-10T08:35:59;21.40;;;19.20;;
66741;SDS011;53654;54.152;19.432;2022-11-10T08:38:46;21.00;;;18.90;;
66741;SDS011;53654;54.152;19.432;2022-11-10T08:41:32;21.60;;;19.40;;
66741;SDS011;53654;54.152;19.432;2022-11-10T08:44:19;21.10;;;18.90;;
66741;SDS011;53654;54.152;19.432;2022-11-10T08:47:06;21.20;;;19.10;;
66741;SDS011;53654;54.152;19.432;2022-11-10T08:49:52;20.60;;;18.60;;
66741;SDS011;53654;54.152;19.432;2022-11-10T08:52:39;20.50;;;18.50;;
66741;SDS011;53654;54.152;19.432;2022-11-10T08:55:26;21.20;;;19.10;;
66741;SDS011;53654;54.152;19.432;2022-11-10T08:58:13;20.80;;;18.70;;
66741;SDS011;53654;54.152;19.432;2022-11-10T09:01:06;21.40;;;19.20;;
66741;SDS011;53654;54.152;19.432;2022-11-10T09:03:53;21.80;;;19.50;;
66741;SDS011;53654;54.152;19.432;2022-11-10T09:06:40;22.80;;;19.50;;
66741;SDS011;53654;54.152;19.432;2022-11-10T09:09:27;20.20;;;18.20;;
66741;SDS011;53654;54.152;19.432;2022-11-10T09:12:13;19.00;;;17.20;;
66741;SDS011;53654;54.152;19.432;2022-11-10T09:15:01;21.00;;;18.90;;
66741;SDS011;53654;54.152;19.432;2022-11-10T09:17:47;20.80;;;18.70;;
66741;SDS011;53654;54.152;19.432;2022-11-10T09:20:35;19.80;;;17.70;;
66741;SDS011;53654;54.152;19.432;2022-11-10T09:23:22;19.30;;;17.30;;
66741;SDS011;53654;54.152;19.432;2022-11-10T09:26:11;18.10;;;16.40;;
66741;SDS011;53654;54.152;19.432;2022-11-10T09:28:57;16.70;;;15.20;;
66741;SDS011;53654;54.152;19.432;2022-11-10T09:31:44;17.10;;;15.30;;
66741;SDS011;53654;54.152;19.432;2022-11-10T09:34:30;16.50;;;14.90;;
66741;SDS011;53654;54.152;19.432;2022-11-10T09:37:17;16.90;;;15.20;;
66741;SDS011;53654;54.152;19.432;2022-11-10T09:40:03;17.20;;;15.40;;
66741;SDS011;53654;54.152;19.432;2022-11-10T09:42:58;17.10;;;15.40;;
66741;SDS011;53654;54.152;19.432;2022-11-10T09:45:46;16.10;;;14.40;;
66741;SDS011;53654;54.152;19.432;2022-11-10T09:48:37;13.10;;;11.80;;
66741;SDS011;53654;54.152;19.432;2022-11-10T09:51:32;12.90;;;11.60;;
66741;SDS011;53654;54.152;19.432;2022-11-10T09:57:17;12.60;;;11.30;;
66741;SDS011;53654;54.152;19.432;2022-11-10T10:00:11;11.80;;;10.60;;
66741;SDS011;53654;54.152;19.432;2022-11-10T10:03:01;10.30;;;9.20;;
66741;SDS011;53654;54.152;19.432;2022-11-10T10:05:52;11.10;;;10.00;;
66741;SDS011;53654;54.152;19.432;2022-11-10T10:09:10;10.70;;;9.70;;
66741;SDS011;53654;54.152;19.432;2022-11-10T10:24:58;10.60;;;7.40;;
66741;SDS011;53654;54.152;19.432;2022-11-10T10:27:50;8.40;;;7.10;;
66741;SDS011;53654;54.152;19.432;2022-11-10T10:30:45;7.60;;;6.50;;
66741;SDS011;53654;54.152;19.432;2022-11-10T10:33:32;7.80;;;6.60;;
66741;SDS011;53654;54.152;19.432;2022-11-10T10:36:23;7.90;;;5.80;;
66741;SDS011;53654;54.152;19.432;2022-11-10T10:39:15;6.90;;;5.50;;
66741;SDS011;53654;54.152;19.432;2022-11-10T10:42:17;5.20;;;4.60;;
66741;SDS011;53654;54.152;19.432;2022-11-10T10:48:02;6.60;;;4.60;;
66741;SDS011;53654;54.152;19.432;2022-11-10T10:50:48;6.30;;;4.90;;
66741;SDS011;53654;54.152;19.432;2022-11-10T10:53:45;4.90;;;4.20;;
66741;SDS011;53654;54.152;19.432;2022-11-10T10:56:33;6.00;;;4.20;;
66741;SDS011;53654;54.152;19.432;2022-11-10T10:59:21;4.90;;;3.70;;
66741;SDS011;53654;54.152;19.432;2022-11-10T11:02:23;5.60;;;4.20;;
66741;SDS011;53654;54.152;19.432;2022-11-10T11:05:15;7.10;;;4.90;;
66741;SDS011;53654;54.152;19.432;2022-11-10T11:08:03;7.50;;;5.50;;
66741;SDS011;53654;54.152;19.432;2022-11-10T11:10:50;6.10;;;4.70;;
66741;SDS011;53654;54.152;19.432;2022-11-10T11:13:37;7.10;;;4.60;;
66741;SDS011;53654;54.152;19.432;2022-11-10T11:16:24;6.40;;;4.40;;
66741;SDS011;53654;54.152;19.432;2022-11-10T11:19:11;5.10;;;4.50;;
66741;SDS011;53654;54.152;19.432;2022-11-10T11:25:31;4.50;;;4.10;;
66741;SDS011;53654;54.152;19.432;2022-11-10T11:28:25;6.00;;;3.80;;
66741;SDS011;53654;54.152;19.432;2022-11-10T11:37:14;7.30;;;5.60;;
66741;SDS011;53654;54.152;19.432;2022-11-10T11:45:52;5.50;;;4.00;;
66741;SDS011;53654;54.152;19.432;2022-11-10T12:02:16;5.80;;;5.20;;
66741;SDS011;53654;54.152;19.432;2022-11-10T12:04:41;4.30;;;3.70;;
66741;SDS011;53654;54.152;19.432;2022-11-10T12:16:35;8.20;;;6.30;;
66741;SDS011;53654;54.152;19.432;2022-11-10T12:22:58;3.80;;;2.60;;
66741;SDS011;53654;54.152;19.432;2022-11-10T12:28:52;5.60;;;5.10;;
66741;SDS011;53654;54.152;19.432;2022-11-10T12:31:48;6.10;;;5.50;;
66741;SDS011;53654;54.152;19.432;2022-11-10T12:34:49;6.40;;;5.30;;
66741;SDS011;53654;54.152;19.432;2022-11-10T12:40:49;5.30;;;3.40;;
66741;SDS011;53654;54.152;19.432;2022-11-10T12:43:47;4.10;;;3.10;;
66741;SDS011;53654;54.152;19.432;2022-11-10T12:46:46;4.80;;;3.30;;
66741;SDS011;53654;54.152;19.432;2022-11-10T12:49:40;5.20;;;3.00;;
66741;SDS011;53654;54.152;19.432;2022-11-10T12:52:38;6.00;;;3.60;;
66741;SDS011;53654;54.152;19.432;2022-11-10T12:55:37;5.00;;;3.80;;
66741;SDS011;53654;54.152;19.432;2022-11-10T12:58:32;4.70;;;3.10;;
66741;SDS011;53654;54.152;19.432;2022-11-10T13:01:18;4.50;;;3.10;;
66741;SDS011;53654;54.152;19.432;2022-11-10T13:04:06;5.00;;;3.90;;
66741;SDS011;53654;54.152;19.432;2022-11-10T13:06:57;5.30;;;4.10;;
66741;SDS011;53654;54.152;19.432;2022-11-10T13:10:13;5.80;;;5.10;;
66741;SDS011;53654;54.152;19.432;2022-11-10T13:13:11;6.40;;;5.10;;
66741;SDS011;53654;54.152;19.432;2022-11-10T13:16:02;6.30;;;4.00;;
66741;SDS011;53654;54.152;19.432;2022-11-10T13:24:38;4.10;;;3.10;;
66741;SDS011;53654;54.152;19.432;2022-11-10T13:30:37;7.00;;;4.50;;
66741;SDS011;53654;54.152;19.432;2022-11-10T13:36:26;6.70;;;4.90;;
66741;SDS011;53654;54.152;19.432;2022-11-10T13:39:25;9.40;;;5.60;;
66741;SDS011;53654;54.152;19.432;2022-11-10T13:42:18;8.40;;;6.20;;
66741;SDS011;53654;54.152;19.432;2022-11-10T13:46:11;7.70;;;5.90;;
66741;SDS011;53654;54.152;19.432;2022-11-10T13:48:36;11.20;;;9.50;;
66741;SDS011;53654;54.152;19.432;2022-11-10T13:58:02;11.20;;;8.50;;
66741;SDS011;53654;54.152;19.432;2022-11-10T14:04:03;11.20;;;8.00;;
66741;SDS011;53654;54.152;19.432;2022-11-10T14:06:51;11.00;;;8.10;;
66741;SDS011;53654;54.152;19.432;2022-11-10T14:09:48;10.70;;;8.30;;
66741;SDS011;53654;54.152;19.432;2022-11-10T14:15:36;11.60;;;6.20;;
66741;SDS011;53654;54.152;19.432;2022-11-10T14:18:36;9.20;;;6.00;;
66741;SDS011;53654;54.152;19.432;2022-11-10T14:24:38;10.50;;;6.10;;
66741;SDS011;53654;54.152;19.432;2022-11-10T14:27:38;12.80;;;7.60;;
66741;SDS011;53654;54.152;19.432;2022-11-10T14:30:26;11.30;;;7.80;;
66741;SDS011;53654;54.152;19.432;2022-11-10T14:33:13;10.40;;;6.60;;
66741;SDS011;53654;54.152;19.432;2022-11-10T14:36:04;10.30;;;6.20;;
66741;SDS011;53654;54.152;19.432;2022-11-10T14:38:54;9.80;;;6.50;;
66741;SDS011;53654;54.152;19.432;2022-11-10T14:41:46;9.00;;;5.10;;
66741;SDS011;53654;54.152;19.432;2022-11-10T14:44:34;9.40;;;4.90;;
66741;SDS011;53654;54.152;19.432;2022-11-10T14:52:59;11.00;;;6.30;;
66741;SDS011;53654;54.152;19.432;2022-11-10T14:55:49;8.10;;;4.90;;
66741;SDS011;53654;54.152;19.432;2022-11-10T14:58:41;10.80;;;5.20;;
66741;SDS011;53654;54.152;19.432;2022-11-10T15:01:33;9.30;;;5.10;;
66741;SDS011;53654;54.152;19.432;2022-11-10T15:04:25;11.70;;;7.20;;
66741;SDS011;53654;54.152;19.432;2022-11-10T15:07:15;12.90;;;7.80;;
66741;SDS011;53654;54.152;19.432;2022-11-10T15:10:04;11.40;;;6.70;;
66741;SDS011;53654;54.152;19.432;2022-11-10T15:13:05;11.90;;;5.80;;
66741;SDS011;53654;54.152;19.432;2022-11-10T15:19:19;9.70;;;4.80;;
66741;SDS011;53654;54.152;19.432;2022-11-10T15:22:16;10.70;;;5.70;;
66741;SDS011;53654;54.152;19.432;2022-11-10T15:25:07;10.50;;;5.50;;
66741;SDS011;53654;54.152;19.432;2022-11-10T15:31:03;9.70;;;5.30;;
66741;SDS011;53654;54.152;19.432;2022-11-10T15:33:53;8.50;;;5.20;;
66741;SDS011;53654;54.152;19.432;2022-11-10T15:36:41;10.80;;;6.00;;
66741;SDS011;53654;54.152;19.432;2022-11-10T15:39:29;14.20;;;9.60;;
66741;SDS011;53654;54.152;19.432;2022-11-10T15:42:20;17.40;;;10.00;;
66741;SDS011;53654;54.152;19.432;2022-11-10T15:45:08;14.60;;;8.00;;
66741;SDS011;53654;54.152;19.432;2022-11-10T15:47:55;13.60;;;8.10;;
66741;SDS011;53654;54.152;19.432;2022-11-10T15:50:46;11.40;;;5.90;;
66741;SDS011;53654;54.152;19.432;2022-11-10T15:53:36;11.50;;;6.40;;
66741;SDS011;53654;54.152;19.432;2022-11-10T15:56:25;12.50;;;6.10;;
66741;SDS011;53654;54.152;19.432;2022-11-10T15:59:12;11.30;;;5.70;;
66741;SDS011;53654;54.152;19.432;2022-11-10T16:01:59;9.20;;;5.60;;
66741;SDS011;53654;54.152;19.432;2022-11-10T16:04:47;10.60;;;6.20;;
66741;SDS011;53654;54.152;19.432;2022-11-10T16:07:41;11.60;;;6.70;;
66741;SDS011;53654;54.152;19.432;2022-11-10T16:10:27;12.50;;;6.70;;
66741;SDS011;53654;54.152;19.432;2022-11-10T16:13:16;10.70;;;6.80;;
66741;SDS011;53654;54.152;19.432;2022-11-10T16:16:06;11.00;;;6.60;;
66741;SDS011;53654;54.152;19.432;2022-11-10T16:18:56;11.40;;;6.30;;
66741;SDS011;53654;54.152;19.432;2022-11-10T16:21:43;10.90;;;6.80;;
66741;SDS011;53654;54.152;19.432;2022-11-10T16:24:30;11.20;;;7.30;;
66741;SDS011;53654;54.152;19.432;2022-11-10T16:27:17;15.40;;;8.10;;
66741;SDS011;53654;54.152;19.432;2022-11-10T16:30:05;12.80;;;7.80;;
66741;SDS011;53654;54.152;19.432;2022-11-10T16:32:58;11.90;;;7.30;;
66741;SDS011;53654;54.152;19.432;2022-11-10T16:35:46;12.30;;;7.80;;
66741;SDS011;53654;54.152;19.432;2022-11-10T16:38:36;13.40;;;8.70;;
66741;SDS011;53654;54.152;19.432;2022-11-10T16:41:23;12.50;;;8.70;;
66741;SDS011;53654;54.152;19.432;2022-11-10T16:44:11;15.00;;;9.80;;
66741;SDS011;53654;54.152;19.432;2022-11-10T16:46:58;14.20;;;8.90;;
66741;SDS011;53654;54.152;19.432;2022-11-10T16:49:46;12.30;;;8.30;;
66741;SDS011;53654;54.152;19.432;2022-11-10T16:52:35;11.20;;;7.90;;
66741;SDS011;53654;54.152;19.432;2022-11-10T16:55:22;12.20;;;8.10;;
66741;SDS011;53654;54.152;19.432;2022-11-10T16:58:09;12.30;;;8.30;;
66741;SDS011;53654;54.152;19.432;2022-11-10T17:00:56;12.70;;;8.10;;
66741;SDS011;53654;54.152;19.432;2022-11-10T17:03:54;12.40;;;8.40;;
66741;SDS011;53654;54.152;19.432;2022-11-10T17:06:43;12.60;;;8.60;;
66741;SDS011;53654;54.152;19.432;2022-11-10T17:09:30;12.80;;;8.60;;
66741;SDS011;53654;54.152;19.432;2022-11-10T17:12:17;13.10;;;8.90;;
66741;SDS011;53654;54.152;19.432;2022-11-10T17:15:04;14.00;;;9.40;;
66741;SDS011;53654;54.152;19.432;2022-11-10T17:17:51;12.90;;;9.30;;
66741;SDS011;53654;54.152;19.432;2022-11-10T17:20:41;12.40;;;9.90;;
66741;SDS011;53654;54.152;19.432;2022-11-10T17:23:30;14.30;;;11.00;;
66741;SDS011;53654;54.152;19.432;2022-11-10T17:26:18;13.40;;;11.70;;
66741;SDS011;53654;54.152;19.432;2022-11-10T17:29:08;16.40;;;12.70;;
66741;SDS011;53654;54.152;19.432;2022-11-10T17:32:02;17.50;;;12.90;;
66741;SDS011;53654;54.152;19.432;2022-11-10T17:34:49;19.50;;;12.90;;
66741;SDS011;53654;54.152;19.432;2022-11-10T17:37:35;18.10;;;12.80;;
66741;SDS011;53654;54.152;19.432;2022-11-10T17:40:24;17.40;;;13.10;;
66741;SDS011;53654;54.152;19.432;2022-11-10T17:43:12;19.00;;;12.50;;
66741;SDS011;53654;54.152;19.432;2022-11-10T17:46:00;18.80;;;13.20;;
66741;SDS011;53654;54.152;19.432;2022-11-10T17:48:46;18.00;;;13.60;;
66741;SDS011;53654;54.152;19.432;2022-11-10T17:51:33;21.70;;;16.60;;
66741;SDS011;53654;54.152;19.432;2022-11-10T17:54:21;23.60;;;18.20;;
66741;SDS011;53654;54.152;19.432;2022-11-10T17:57:08;25.50;;;19.50;;
66741;SDS011;53654;54.152;19.432;2022-11-10T17:59:55;25.20;;;19.80;;
66741;SDS011;53654;54.152;19.432;2022-11-10T18:02:43;29.80;;;21.40;;
66741;SDS011;53654;54.152;19.432;2022-11-10T18:05:39;32.10;;;23.00;;
66741;SDS011;53654;54.152;19.432;2022-11-10T18:08:26;31.30;;;24.40;;
66741;SDS011;53654;54.152;19.432;2022-11-10T18:11:13;29.90;;;24.60;;